sensor_id;sensor_type;location;lat;lon;timestamp;P1;durP1;ratioP1;P2;durP2;ratioP2
12878;SDS011;20617;49.476;10.986;2024-01-27T00:01:23;10.27;;;3.20;;
12878;SDS011;20617;49.476;10.986;2024-01-27T00:03:25;8.60;;;2.42;;
12878;SDS011;20617;49.476;10.986;2024-01-27T00:05:26;7.28;;;2.63;;
12878;SDS011;20617;49.476;10.986;2024-01-27T00:07:27;10.40;;;2.70;;
12878;SDS011;20617;49.476;10.986;2024-01-27T00:09:27;10.75;;;2.63;;
12878;SDS011;20617;49.476;10.986;2024-01-27T00:11:28;5.38;;;2.33;;
12878;SDS011;20617;49.476;10.986;2024-01-27T00:13:29;12.48;;;2.72;;
12878;SDS011;20617;49.476;10.986;2024-01-27T00:15:30;11.73;;;2.38;;
12878;SDS011;20617;49.476;10.986;2024-01-27T00:17:33;8.85;;;2.97;;
12878;SDS011;20617;49.476;10.986;2024-01-27T00:19:34;12.65;;;3.03;;
12878;SDS011;20617;49.476;10.986;2024-01-27T00:21:34;9.15;;;2.47;;
12878;SDS011;20617;49.476;10.986;2024-01-27T00:23:35;8.27;;;2.80;;
12878;SDS011;20617;49.476;10.986;2024-01-27T00:25:36;8.38;;;2.67;;
12878;SDS011;20617;49.476;10.986;2024-01-27T00:27:36;11.50;;;3.22;;
12878;SDS011;20617;49.476;10.986;2024-01-27T00:29:37;11.02;;;3.13;;
12878;SDS011;20617;49.476;10.986;2024-01-27T00:31:38;11.38;;;2.70;;
12878;SDS011;20617;49.476;10.986;2024-01-27T00:33:42;10.57;;;2.75;;
12878;SDS011;20617;49.476;10.986;2024-01-27T00:35:45;7.68;;;2.45;;
12878;SDS011;20617;49.476;10.986;2024-01-27T00:37:47;11.32;;;2.40;;
12878;SDS011;20617;49.476;10.986;2024-01-27T00:39:48;10.10;;;2.55;;
12878;SDS011;20617;49.476;10.986;2024-01-27T00:41:48;9.05;;;2.92;;
12878;SDS011;20617;49.476;10.986;2024-01-27T00:43:49;10.45;;;2.60;;
12878;SDS011;20617;49.476;10.986;2024-01-27T00:45:50;8.27;;;1.92;;
12878;SDS011;20617;49.476;10.986;2024-01-27T00:47:50;11.25;;;2.42;;
12878;SDS011;20617;49.476;10.986;2024-01-27T00:49:54;10.82;;;2.53;;
12878;SDS011;20617;49.476;10.986;2024-01-27T00:51:54;11.70;;;2.22;;
12878;SDS011;20617;49.476;10.986;2024-01-27T00:53:55;11.93;;;3.28;;
12878;SDS011;20617;49.476;10.986;2024-01-27T00:55:56;8.85;;;2.60;;
12878;SDS011;20617;49.476;10.986;2024-01-27T00:57:57;12.75;;;2.95;;
12878;SDS011;20617;49.476;10.986;2024-01-27T00:59:58;6.70;;;2.22;;
12878;SDS011;20617;49.476;10.986;2024-01-27T01:01:58;8.35;;;2.75;;
12878;SDS011;20617;49.476;10.986;2024-01-27T01:03:59;8.65;;;2.58;;
12878;SDS011;20617;49.476;10.986;2024-01-27T01:06:02;8.77;;;2.50;;
12878;SDS011;20617;49.476;10.986;2024-01-27T01:08:03;11.85;;;2.75;;
12878;SDS011;20617;49.476;10.986;2024-01-27T01:10:05;11.43;;;3.28;;
12878;SDS011;20617;49.476;10.986;2024-01-27T01:12:07;14.23;;;3.58;;
12878;SDS011;20617;49.476;10.986;2024-01-27T01:14:07;9.40;;;2.47;;
12878;SDS011;20617;49.476;10.986;2024-01-27T01:16:08;10.90;;;2.40;;
12878;SDS011;20617;49.476;10.986;2024-01-27T01:18:09;10.80;;;2.13;;
12878;SDS011;20617;49.476;10.986;2024-01-27T01:20:10;10.45;;;2.50;;
12878;SDS011;20617;49.476;10.986;2024-01-27T01:22:14;11.77;;;3.45;;
12878;SDS011;20617;49.476;10.986;2024-01-27T01:24:14;7.35;;;2.45;;
12878;SDS011;20617;49.476;10.986;2024-01-27T01:26:15;11.15;;;2.50;;
12878;SDS011;20617;49.476;10.986;2024-01-27T01:28:16;8.05;;;2.28;;
12878;SDS011;20617;49.476;10.986;2024-01-27T01:30:16;6.63;;;2.00;;
12878;SDS011;20617;49.476;10.986;2024-01-27T01:32:17;8.65;;;2.47;;
12878;SDS011;20617;49.476;10.986;2024-01-27T01:34:18;12.45;;;2.33;;
12878;SDS011;20617;49.476;10.986;2024-01-27T01:36:19;9.50;;;2.47;;
12878;SDS011;20617;49.476;10.986;2024-01-27T01:38:22;8.07;;;2.30;;
12878;SDS011;20617;49.476;10.986;2024-01-27T01:40:23;6.82;;;2.20;;
12878;SDS011;20617;49.476;10.986;2024-01-27T01:42:23;8.77;;;2.33;;
12878;SDS011;20617;49.476;10.986;2024-01-27T01:44:24;7.78;;;2.30;;
12878;SDS011;20617;49.476;10.986;2024-01-27T01:46:30;12.35;;;3.00;;
12878;SDS011;20617;49.476;10.986;2024-01-27T01:48:31;7.20;;;2.40;;
12878;SDS011;20617;49.476;10.986;2024-01-27T01:50:32;9.02;;;2.30;;
12878;SDS011;20617;49.476;10.986;2024-01-27T01:52:33;7.80;;;2.72;;
12878;SDS011;20617;49.476;10.986;2024-01-27T01:54:36;9.35;;;2.38;;
12878;SDS011;20617;49.476;10.986;2024-01-27T01:56:37;7.97;;;2.20;;
12878;SDS011;20617;49.476;10.986;2024-01-27T01:58:38;10.52;;;2.58;;
12878;SDS011;20617;49.476;10.986;2024-01-27T02:00:39;9.68;;;2.60;;
12878;SDS011;20617;49.476;10.986;2024-01-27T02:02:40;7.20;;;2.60;;
12878;SDS011;20617;49.476;10.986;2024-01-27T02:04:43;5.88;;;2.17;;
12878;SDS011;20617;49.476;10.986;2024-01-27T02:06:44;9.27;;;2.58;;
12878;SDS011;20617;49.476;10.986;2024-01-27T02:08:45;11.10;;;2.55;;
12878;SDS011;20617;49.476;10.986;2024-01-27T02:10:48;7.63;;;2.70;;
12878;SDS011;20617;49.476;10.986;2024-01-27T02:12:49;9.63;;;2.30;;
12878;SDS011;20617;49.476;10.986;2024-01-27T02:14:50;6.13;;;1.92;;
12878;SDS011;20617;49.476;10.986;2024-01-27T02:16:51;5.57;;;2.13;;
12878;SDS011;20617;49.476;10.986;2024-01-27T02:18:51;8.75;;;2.28;;
12878;SDS011;20617;49.476;10.986;2024-01-27T02:20:52;8.38;;;2.60;;
12878;SDS011;20617;49.476;10.986;2024-01-27T02:22:53;10.88;;;3.17;;
12878;SDS011;20617;49.476;10.986;2024-01-27T02:24:56;11.27;;;2.90;;
12878;SDS011;20617;49.476;10.986;2024-01-27T02:26:57;6.47;;;2.50;;
12878;SDS011;20617;49.476;10.986;2024-01-27T02:28:58;11.57;;;3.85;;
12878;SDS011;20617;49.476;10.986;2024-01-27T02:30:58;10.77;;;3.47;;
12878;SDS011;20617;49.476;10.986;2024-01-27T02:33:00;7.18;;;2.60;;
12878;SDS011;20617;49.476;10.986;2024-01-27T02:35:01;11.65;;;2.40;;
12878;SDS011;20617;49.476;10.986;2024-01-27T02:37:02;10.15;;;2.85;;
12878;SDS011;20617;49.476;10.986;2024-01-27T02:39:03;8.50;;;2.70;;
12878;SDS011;20617;49.476;10.986;2024-01-27T02:41:07;6.93;;;2.40;;
12878;SDS011;20617;49.476;10.986;2024-01-27T02:43:09;6.85;;;2.30;;
12878;SDS011;20617;49.476;10.986;2024-01-27T02:45:10;9.73;;;2.40;;
12878;SDS011;20617;49.476;10.986;2024-01-27T02:47:11;8.45;;;2.88;;
12878;SDS011;20617;49.476;10.986;2024-01-27T02:49:11;10.65;;;3.00;;
12878;SDS011;20617;49.476;10.986;2024-01-27T02:51:12;10.45;;;3.40;;
12878;SDS011;20617;49.476;10.986;2024-01-27T02:53:13;12.77;;;3.08;;
12878;SDS011;20617;49.476;10.986;2024-01-27T02:55:14;12.52;;;3.42;;
12878;SDS011;20617;49.476;10.986;2024-01-27T02:57:17;11.50;;;2.72;;
12878;SDS011;20617;49.476;10.986;2024-01-27T02:59:18;9.70;;;2.45;;
12878;SDS011;20617;49.476;10.986;2024-01-27T03:01:18;13.50;;;3.30;;
12878;SDS011;20617;49.476;10.986;2024-01-27T03:03:19;18.13;;;3.58;;
12878;SDS011;20617;49.476;10.986;2024-01-27T03:05:20;9.32;;;2.78;;
12878;SDS011;20617;49.476;10.986;2024-01-27T03:07:20;15.02;;;3.22;;
12878;SDS011;20617;49.476;10.986;2024-01-27T03:09:21;11.82;;;2.60;;
12878;SDS011;20617;49.476;10.986;2024-01-27T03:11:22;11.00;;;3.08;;
12878;SDS011;20617;49.476;10.986;2024-01-27T03:13:26;16.80;;;2.78;;
12878;SDS011;20617;49.476;10.986;2024-01-27T03:15:27;10.75;;;3.15;;
12878;SDS011;20617;49.476;10.986;2024-01-27T03:17:28;10.25;;;3.08;;
12878;SDS011;20617;49.476;10.986;2024-01-27T03:19:29;13.30;;;3.15;;
12878;SDS011;20617;49.476;10.986;2024-01-27T03:21:29;9.73;;;2.22;;
12878;SDS011;20617;49.476;10.986;2024-01-27T03:23:30;10.23;;;3.17;;
12878;SDS011;20617;49.476;10.986;2024-01-27T03:25:31;13.30;;;3.10;;
12878;SDS011;20617;49.476;10.986;2024-01-27T03:27:32;10.52;;;2.92;;
12878;SDS011;20617;49.476;10.986;2024-01-27T03:29:35;13.85;;;3.70;;
12878;SDS011;20617;49.476;10.986;2024-01-27T03:31:36;10.55;;;2.83;;
12878;SDS011;20617;49.476;10.986;2024-01-27T03:33:37;10.35;;;3.28;;
12878;SDS011;20617;49.476;10.986;2024-01-27T03:35:37;9.35;;;3.20;;
12878;SDS011;20617;49.476;10.986;2024-01-27T03:37:39;7.07;;;2.95;;
12878;SDS011;20617;49.476;10.986;2024-01-27T03:39:40;11.80;;;3.80;;
12878;SDS011;20617;49.476;10.986;2024-01-27T03:41:41;9.18;;;2.67;;
12878;SDS011;20617;49.476;10.986;2024-01-27T03:43:43;11.57;;;2.70;;
12878;SDS011;20617;49.476;10.986;2024-01-27T03:45:47;8.68;;;2.50;;
12878;SDS011;20617;49.476;10.986;2024-01-27T03:47:47;8.05;;;2.40;;
12878;SDS011;20617;49.476;10.986;2024-01-27T03:49:48;11.23;;;3.45;;
12878;SDS011;20617;49.476;10.986;2024-01-27T03:51:49;8.50;;;2.45;;
12878;SDS011;20617;49.476;10.986;2024-01-27T03:53:50;11.02;;;3.08;;
12878;SDS011;20617;49.476;10.986;2024-01-27T03:55:50;7.25;;;2.35;;
12878;SDS011;20617;49.476;10.986;2024-01-27T03:57:51;7.97;;;2.55;;
12878;SDS011;20617;49.476;10.986;2024-01-27T03:59:52;9.55;;;2.70;;
12878;SDS011;20617;49.476;10.986;2024-01-27T04:01:55;10.88;;;3.13;;
12878;SDS011;20617;49.476;10.986;2024-01-27T04:03:56;13.70;;;3.42;;
12878;SDS011;20617;49.476;10.986;2024-01-27T04:05:56;10.20;;;2.90;;
12878;SDS011;20617;49.476;10.986;2024-01-27T04:07:57;10.63;;;3.08;;
12878;SDS011;20617;49.476;10.986;2024-01-27T04:09:58;9.43;;;3.40;;
12878;SDS011;20617;49.476;10.986;2024-01-27T04:11:58;11.07;;;4.22;;
12878;SDS011;20617;49.476;10.986;2024-01-27T04:13:59;12.73;;;3.65;;
12878;SDS011;20617;49.476;10.986;2024-01-27T04:16:00;9.30;;;3.80;;
12878;SDS011;20617;49.476;10.986;2024-01-27T04:18:03;10.13;;;4.18;;
12878;SDS011;20617;49.476;10.986;2024-01-27T04:20:05;12.77;;;3.63;;
12878;SDS011;20617;49.476;10.986;2024-01-27T04:22:06;12.75;;;3.92;;
12878;SDS011;20617;49.476;10.986;2024-01-27T04:24:07;11.85;;;3.83;;
12878;SDS011;20617;49.476;10.986;2024-01-27T04:26:08;12.60;;;3.63;;
12878;SDS011;20617;49.476;10.986;2024-01-27T04:28:08;13.13;;;4.32;;
12878;SDS011;20617;49.476;10.986;2024-01-27T04:30:10;8.10;;;3.92;;
12878;SDS011;20617;49.476;10.986;2024-01-27T04:32:12;11.82;;;3.53;;
12878;SDS011;20617;49.476;10.986;2024-01-27T04:34:16;11.65;;;3.63;;
12878;SDS011;20617;49.476;10.986;2024-01-27T04:36:24;14.63;;;4.25;;
12878;SDS011;20617;49.476;10.986;2024-01-27T04:38:25;9.90;;;4.25;;
12878;SDS011;20617;49.476;10.986;2024-01-27T04:40:26;14.23;;;4.43;;
12878;SDS011;20617;49.476;10.986;2024-01-27T04:42:27;13.68;;;4.35;;
12878;SDS011;20617;49.476;10.986;2024-01-27T04:44:27;11.13;;;4.10;;
12878;SDS011;20617;49.476;10.986;2024-01-27T04:46:28;12.48;;;4.10;;
12878;SDS011;20617;49.476;10.986;2024-01-27T04:48:29;15.48;;;4.72;;
12878;SDS011;20617;49.476;10.986;2024-01-27T04:50:32;11.95;;;4.40;;
12878;SDS011;20617;49.476;10.986;2024-01-27T04:52:33;10.52;;;4.28;;
12878;SDS011;20617;49.476;10.986;2024-01-27T04:54:33;10.63;;;4.13;;
12878;SDS011;20617;49.476;10.986;2024-01-27T04:56:34;9.23;;;4.28;;
12878;SDS011;20617;49.476;10.986;2024-01-27T04:58:35;8.38;;;3.42;;
12878;SDS011;20617;49.476;10.986;2024-01-27T05:00:36;13.02;;;4.35;;
12878;SDS011;20617;49.476;10.986;2024-01-27T05:02:36;13.20;;;4.15;;
12878;SDS011;20617;49.476;10.986;2024-01-27T05:04:39;8.70;;;3.40;;
12878;SDS011;20617;49.476;10.986;2024-01-27T05:06:46;8.18;;;3.65;;
12878;SDS011;20617;49.476;10.986;2024-01-27T05:08:46;11.07;;;3.25;;
12878;SDS011;20617;49.476;10.986;2024-01-27T05:10:47;11.68;;;3.80;;
12878;SDS011;20617;49.476;10.986;2024-01-27T05:12:48;10.50;;;4.45;;
12878;SDS011;20617;49.476;10.986;2024-01-27T05:14:48;9.98;;;4.53;;
12878;SDS011;20617;49.476;10.986;2024-01-27T05:16:49;11.30;;;3.97;;
12878;SDS011;20617;49.476;10.986;2024-01-27T05:18:50;10.80;;;3.67;;
12878;SDS011;20617;49.476;10.986;2024-01-27T05:20:50;10.82;;;4.47;;
12878;SDS011;20617;49.476;10.986;2024-01-27T05:22:54;13.18;;;4.75;;
12878;SDS011;20617;49.476;10.986;2024-01-27T05:24:55;14.70;;;4.57;;
12878;SDS011;20617;49.476;10.986;2024-01-27T05:26:56;12.02;;;4.78;;
12878;SDS011;20617;49.476;10.986;2024-01-27T05:28:59;11.18;;;4.50;;
12878;SDS011;20617;49.476;10.986;2024-01-27T05:31:00;11.93;;;5.00;;
12878;SDS011;20617;49.476;10.986;2024-01-27T05:33:00;12.13;;;4.63;;
12878;SDS011;20617;49.476;10.986;2024-01-27T05:35:01;12.35;;;5.03;;
12878;SDS011;20617;49.476;10.986;2024-01-27T05:37:02;13.65;;;4.95;;
12878;SDS011;20617;49.476;10.986;2024-01-27T05:39:05;10.05;;;4.78;;
12878;SDS011;20617;49.476;10.986;2024-01-27T05:41:06;9.90;;;4.50;;
12878;SDS011;20617;49.476;10.986;2024-01-27T05:43:07;12.32;;;4.85;;
12878;SDS011;20617;49.476;10.986;2024-01-27T05:45:08;13.93;;;5.03;;
12878;SDS011;20617;49.476;10.986;2024-01-27T05:47:09;12.52;;;4.30;;
12878;SDS011;20617;49.476;10.986;2024-01-27T05:49:10;11.45;;;5.32;;
12878;SDS011;20617;49.476;10.986;2024-01-27T05:51:11;11.77;;;4.53;;
12878;SDS011;20617;49.476;10.986;2024-01-27T05:53:11;12.43;;;4.57;;
12878;SDS011;20617;49.476;10.986;2024-01-27T05:55:15;13.48;;;4.00;;
12878;SDS011;20617;49.476;10.986;2024-01-27T05:57:15;10.68;;;3.97;;
12878;SDS011;20617;49.476;10.986;2024-01-27T05:59:16;11.73;;;4.25;;
12878;SDS011;20617;49.476;10.986;2024-01-27T06:01:17;11.18;;;4.35;;
12878;SDS011;20617;49.476;10.986;2024-01-27T06:03:18;11.88;;;4.00;;
12878;SDS011;20617;49.476;10.986;2024-01-27T06:05:19;14.55;;;4.00;;
12878;SDS011;20617;49.476;10.986;2024-01-27T06:07:19;9.90;;;3.70;;
12878;SDS011;20617;49.476;10.986;2024-01-27T06:09:20;11.45;;;3.85;;
12878;SDS011;20617;49.476;10.986;2024-01-27T06:11:26;11.70;;;3.75;;
12878;SDS011;20617;49.476;10.986;2024-01-27T06:13:27;12.38;;;3.88;;
12878;SDS011;20617;49.476;10.986;2024-01-27T06:15:28;10.05;;;3.72;;
12878;SDS011;20617;49.476;10.986;2024-01-27T06:17:28;10.65;;;4.10;;
12878;SDS011;20617;49.476;10.986;2024-01-27T06:19:29;12.48;;;3.95;;
12878;SDS011;20617;49.476;10.986;2024-01-27T06:21:30;8.25;;;3.80;;
12878;SDS011;20617;49.476;10.986;2024-01-27T06:23:30;10.77;;;3.70;;
12878;SDS011;20617;49.476;10.986;2024-01-27T06:25:32;13.32;;;3.78;;
12878;SDS011;20617;49.476;10.986;2024-01-27T06:27:35;9.95;;;4.38;;
12878;SDS011;20617;49.476;10.986;2024-01-27T06:29:36;10.40;;;4.28;;
12878;SDS011;20617;49.476;10.986;2024-01-27T06:31:37;14.65;;;3.97;;
12878;SDS011;20617;49.476;10.986;2024-01-27T06:33:38;12.57;;;4.20;;
12878;SDS011;20617;49.476;10.986;2024-01-27T06:35:38;9.75;;;4.03;;
12878;SDS011;20617;49.476;10.986;2024-01-27T06:37:39;11.60;;;3.55;;
12878;SDS011;20617;49.476;10.986;2024-01-27T06:39:40;13.00;;;5.20;;
12878;SDS011;20617;49.476;10.986;2024-01-27T06:41:41;13.02;;;4.65;;
12878;SDS011;20617;49.476;10.986;2024-01-27T06:43:44;11.23;;;5.38;;
12878;SDS011;20617;49.476;10.986;2024-01-27T06:45:45;13.60;;;6.47;;
12878;SDS011;20617;49.476;10.986;2024-01-27T06:47:47;9.98;;;3.88;;
12878;SDS011;20617;49.476;10.986;2024-01-27T06:49:48;10.90;;;3.50;;
12878;SDS011;20617;49.476;10.986;2024-01-27T06:51:51;7.90;;;3.45;;
12878;SDS011;20617;49.476;10.986;2024-01-27T06:53:54;11.32;;;3.80;;
12878;SDS011;20617;49.476;10.986;2024-01-27T06:55:55;11.40;;;4.10;;
12878;SDS011;20617;49.476;10.986;2024-01-27T06:57:55;7.95;;;3.50;;
12878;SDS011;20617;49.476;10.986;2024-01-27T06:59:59;11.98;;;3.60;;
12878;SDS011;20617;49.476;10.986;2024-01-27T07:01:59;8.57;;;4.03;;
12878;SDS011;20617;49.476;10.986;2024-01-27T07:04:00;9.85;;;3.70;;
12878;SDS011;20617;49.476;10.986;2024-01-27T07:06:01;11.73;;;3.88;;
12878;SDS011;20617;49.476;10.986;2024-01-27T07:08:03;13.32;;;5.07;;
12878;SDS011;20617;49.476;10.986;2024-01-27T07:10:04;25.80;;;10.18;;
12878;SDS011;20617;49.476;10.986;2024-01-27T07:12:06;21.00;;;7.70;;
12878;SDS011;20617;49.476;10.986;2024-01-27T07:14:08;19.30;;;6.82;;
12878;SDS011;20617;49.476;10.986;2024-01-27T07:16:11;16.75;;;6.50;;
12878;SDS011;20617;49.476;10.986;2024-01-27T07:18:12;12.27;;;5.03;;
12878;SDS011;20617;49.476;10.986;2024-01-27T07:20:12;10.73;;;3.92;;
12878;SDS011;20617;49.476;10.986;2024-01-27T07:22:13;15.98;;;4.35;;
12878;SDS011;20617;49.476;10.986;2024-01-27T07:24:14;10.50;;;4.20;;
12878;SDS011;20617;49.476;10.986;2024-01-27T07:26:15;11.38;;;3.38;;
12878;SDS011;20617;49.476;10.986;2024-01-27T07:28:16;12.88;;;3.85;;
12878;SDS011;20617;49.476;10.986;2024-01-27T07:30:16;12.48;;;4.32;;
12878;SDS011;20617;49.476;10.986;2024-01-27T07:32:20;13.55;;;4.10;;
12878;SDS011;20617;49.476;10.986;2024-01-27T07:34:21;10.15;;;3.80;;
12878;SDS011;20617;49.476;10.986;2024-01-27T07:36:21;12.45;;;3.78;;
12878;SDS011;20617;49.476;10.986;2024-01-27T07:38:22;10.32;;;4.38;;
12878;SDS011;20617;49.476;10.986;2024-01-27T07:40:26;14.40;;;4.00;;
12878;SDS011;20617;49.476;10.986;2024-01-27T07:42:26;11.93;;;3.92;;
12878;SDS011;20617;49.476;10.986;2024-01-27T07:44:27;13.68;;;3.85;;
12878;SDS011;20617;49.476;10.986;2024-01-27T07:46:28;10.23;;;3.95;;
12878;SDS011;20617;49.476;10.986;2024-01-27T07:48:31;13.63;;;4.15;;
12878;SDS011;20617;49.476;10.986;2024-01-27T07:50:32;13.30;;;4.18;;
12878;SDS011;20617;49.476;10.986;2024-01-27T07:52:33;11.43;;;4.93;;
12878;SDS011;20617;49.476;10.986;2024-01-27T07:54:33;14.52;;;4.47;;
12878;SDS011;20617;49.476;10.986;2024-01-27T07:56:34;12.82;;;4.55;;
12878;SDS011;20617;49.476;10.986;2024-01-27T07:58:35;16.48;;;4.57;;
12878;SDS011;20617;49.476;10.986;2024-01-27T08:00:35;12.32;;;4.55;;
12878;SDS011;20617;49.476;10.986;2024-01-27T08:02:36;16.27;;;4.88;;
12878;SDS011;20617;49.476;10.986;2024-01-27T08:04:40;13.20;;;4.68;;
12878;SDS011;20617;49.476;10.986;2024-01-27T08:06:47;10.82;;;4.50;;
12878;SDS011;20617;49.476;10.986;2024-01-27T08:08:49;14.52;;;4.47;;
12878;SDS011;20617;49.476;10.986;2024-01-27T08:10:50;10.50;;;4.28;;
12878;SDS011;20617;49.476;10.986;2024-01-27T08:12:50;15.88;;;4.70;;
12878;SDS011;20617;49.476;10.986;2024-01-27T08:14:53;13.82;;;4.50;;
12878;SDS011;20617;49.476;10.986;2024-01-27T08:16:53;15.25;;;5.28;;
12878;SDS011;20617;49.476;10.986;2024-01-27T08:18:54;14.02;;;4.38;;
12878;SDS011;20617;49.476;10.986;2024-01-27T08:20:57;11.82;;;4.22;;
12878;SDS011;20617;49.476;10.986;2024-01-27T08:22:58;12.98;;;4.07;;
12878;SDS011;20617;49.476;10.986;2024-01-27T08:24:59;11.70;;;4.30;;
12878;SDS011;20617;49.476;10.986;2024-01-27T08:27:00;11.38;;;3.80;;
12878;SDS011;20617;49.476;10.986;2024-01-27T08:29:00;10.70;;;3.80;;
12878;SDS011;20617;49.476;10.986;2024-01-27T08:31:01;12.18;;;4.35;;
12878;SDS011;20617;49.476;10.986;2024-01-27T08:33:02;12.80;;;5.72;;
12878;SDS011;20617;49.476;10.986;2024-01-27T08:35:04;17.55;;;5.10;;
12878;SDS011;20617;49.476;10.986;2024-01-27T08:37:17;11.07;;;4.03;;
12878;SDS011;20617;49.476;10.986;2024-01-27T08:39:19;13.60;;;4.95;;
12878;SDS011;20617;49.476;10.986;2024-01-27T08:41:19;15.60;;;5.28;;
12878;SDS011;20617;49.476;10.986;2024-01-27T08:43:20;8.27;;;3.88;;
12878;SDS011;20617;49.476;10.986;2024-01-27T08:45:23;12.73;;;4.20;;
12878;SDS011;20617;49.476;10.986;2024-01-27T08:47:24;13.52;;;3.92;;
12878;SDS011;20617;49.476;10.986;2024-01-27T08:49:25;18.17;;;4.00;;
12878;SDS011;20617;49.476;10.986;2024-01-27T08:51:25;8.77;;;3.60;;
12878;SDS011;20617;49.476;10.986;2024-01-27T08:53:29;11.55;;;3.45;;
12878;SDS011;20617;49.476;10.986;2024-01-27T08:55:29;9.73;;;4.15;;
12878;SDS011;20617;49.476;10.986;2024-01-27T08:57:30;16.48;;;5.20;;
12878;SDS011;20617;49.476;10.986;2024-01-27T08:59:31;17.52;;;6.28;;
12878;SDS011;20617;49.476;10.986;2024-01-27T09:01:32;17.20;;;6.15;;
12878;SDS011;20617;49.476;10.986;2024-01-27T09:03:32;14.85;;;6.55;;
12878;SDS011;20617;49.476;10.986;2024-01-27T09:05:35;19.45;;;5.53;;
12878;SDS011;20617;49.476;10.986;2024-01-27T09:07:45;13.32;;;5.00;;
12878;SDS011;20617;49.476;10.986;2024-01-27T09:09:49;17.73;;;3.83;;
12878;SDS011;20617;49.476;10.986;2024-01-27T09:11:49;15.40;;;3.53;;
12878;SDS011;20617;49.476;10.986;2024-01-27T09:13:50;13.45;;;4.20;;
12878;SDS011;20617;49.476;10.986;2024-01-27T09:15:51;16.85;;;4.10;;
12878;SDS011;20617;49.476;10.986;2024-01-27T09:17:51;13.13;;;3.60;;
12878;SDS011;20617;49.476;10.986;2024-01-27T09:19:52;11.27;;;4.15;;
12878;SDS011;20617;49.476;10.986;2024-01-27T09:21:55;11.27;;;4.40;;
12878;SDS011;20617;49.476;10.986;2024-01-27T09:23:55;12.70;;;3.85;;
12878;SDS011;20617;49.476;10.986;2024-01-27T09:25:59;14.88;;;4.15;;
12878;SDS011;20617;49.476;10.986;2024-01-27T09:28:02;12.80;;;3.50;;
12878;SDS011;20617;49.476;10.986;2024-01-27T09:30:03;13.60;;;4.47;;
12878;SDS011;20617;49.476;10.986;2024-01-27T09:32:06;12.38;;;3.80;;
12878;SDS011;20617;49.476;10.986;2024-01-27T09:34:07;14.10;;;3.97;;
12878;SDS011;20617;49.476;10.986;2024-01-27T09:36:08;12.38;;;3.90;;
12878;SDS011;20617;49.476;10.986;2024-01-27T09:38:08;17.52;;;3.83;;
12878;SDS011;20617;49.476;10.986;2024-01-27T09:40:09;8.68;;;3.38;;
12878;SDS011;20617;49.476;10.986;2024-01-27T09:42:14;12.35;;;3.45;;
12878;SDS011;20617;49.476;10.986;2024-01-27T09:44:14;16.20;;;4.68;;
12878;SDS011;20617;49.476;10.986;2024-01-27T09:46:18;12.32;;;3.75;;
12878;SDS011;20617;49.476;10.986;2024-01-27T09:48:19;14.20;;;4.28;;
12878;SDS011;20617;49.476;10.986;2024-01-27T09:50:20;13.60;;;3.90;;
12878;SDS011;20617;49.476;10.986;2024-01-27T09:52:22;16.70;;;4.90;;
12878;SDS011;20617;49.476;10.986;2024-01-27T09:54:25;15.30;;;3.65;;
12878;SDS011;20617;49.476;10.986;2024-01-27T09:56:26;12.90;;;3.28;;
12878;SDS011;20617;49.476;10.986;2024-01-27T09:58:35;17.25;;;4.65;;
12878;SDS011;20617;49.476;10.986;2024-01-27T10:01:08;9.35;;;3.10;;
12878;SDS011;20617;49.476;10.986;2024-01-27T10:03:25;11.43;;;3.53;;
12878;SDS011;20617;49.476;10.986;2024-01-27T10:05:50;15.20;;;3.45;;
12878;SDS011;20617;49.476;10.986;2024-01-27T10:07:54;12.38;;;3.97;;
12878;SDS011;20617;49.476;10.986;2024-01-27T10:10:27;11.18;;;3.05;;
12878;SDS011;20617;49.476;10.986;2024-01-27T10:12:34;12.98;;;3.78;;
12878;SDS011;20617;49.476;10.986;2024-01-27T10:14:43;15.85;;;3.53;;
12878;SDS011;20617;49.476;10.986;2024-01-27T10:16:44;12.75;;;3.80;;
12878;SDS011;20617;49.476;10.986;2024-01-27T10:18:45;17.80;;;3.70;;
12878;SDS011;20617;49.476;10.986;2024-01-27T10:20:46;12.82;;;3.47;;
12878;SDS011;20617;49.476;10.986;2024-01-27T10:22:47;14.23;;;3.67;;
12878;SDS011;20617;49.476;10.986;2024-01-27T10:24:48;17.50;;;3.85;;
12878;SDS011;20617;49.476;10.986;2024-01-27T10:26:48;16.00;;;4.15;;
12878;SDS011;20617;49.476;10.986;2024-01-27T10:28:52;19.08;;;4.88;;
12878;SDS011;20617;49.476;10.986;2024-01-27T10:30:56;10.57;;;3.45;;
12878;SDS011;20617;49.476;10.986;2024-01-27T10:33:08;20.52;;;3.67;;
12878;SDS011;20617;49.476;10.986;2024-01-27T10:35:09;15.35;;;3.83;;
12878;SDS011;20617;49.476;10.986;2024-01-27T10:37:11;11.00;;;3.53;;
12878;SDS011;20617;49.476;10.986;2024-01-27T10:39:19;15.15;;;4.05;;
12878;SDS011;20617;49.476;10.986;2024-01-27T10:41:21;11.88;;;3.42;;
12878;SDS011;20617;49.476;10.986;2024-01-27T10:43:24;10.80;;;3.40;;
12878;SDS011;20617;49.476;10.986;2024-01-27T10:45:25;9.02;;;3.20;;
12878;SDS011;20617;49.476;10.986;2024-01-27T10:47:32;14.95;;;3.40;;
12878;SDS011;20617;49.476;10.986;2024-01-27T10:49:33;10.80;;;3.33;;
12878;SDS011;20617;49.476;10.986;2024-01-27T10:51:36;14.65;;;3.95;;
12878;SDS011;20617;49.476;10.986;2024-01-27T10:53:40;13.75;;;3.58;;
12878;SDS011;20617;49.476;10.986;2024-01-27T10:55:43;12.00;;;3.22;;
12878;SDS011;20617;49.476;10.986;2024-01-27T10:57:46;16.45;;;3.72;;
12878;SDS011;20617;49.476;10.986;2024-01-27T10:59:48;15.30;;;3.38;;
12878;SDS011;20617;49.476;10.986;2024-01-27T11:01:51;14.70;;;4.20;;
12878;SDS011;20617;49.476;10.986;2024-01-27T11:03:55;13.35;;;3.40;;
12878;SDS011;20617;49.476;10.986;2024-01-27T11:05:57;10.60;;;3.10;;
12878;SDS011;20617;49.476;10.986;2024-01-27T11:07:59;6.28;;;2.67;;
12878;SDS011;20617;49.476;10.986;2024-01-27T11:10:00;12.65;;;3.28;;
12878;SDS011;20617;49.476;10.986;2024-01-27T11:12:00;10.88;;;2.90;;
12878;SDS011;20617;49.476;10.986;2024-01-27T11:14:03;13.35;;;3.35;;
12878;SDS011;20617;49.476;10.986;2024-01-27T11:16:04;17.23;;;3.45;;
12878;SDS011;20617;49.476;10.986;2024-01-27T11:18:05;13.57;;;3.53;;
12878;SDS011;20617;49.476;10.986;2024-01-27T11:20:10;10.82;;;2.70;;
12878;SDS011;20617;49.476;10.986;2024-01-27T11:24:23;11.48;;;3.28;;
12878;SDS011;20617;49.476;10.986;2024-01-27T11:26:24;11.50;;;2.70;;
12878;SDS011;20617;49.476;10.986;2024-01-27T11:28:25;11.10;;;3.00;;
12878;SDS011;20617;49.476;10.986;2024-01-27T11:30:27;9.75;;;2.50;;
12878;SDS011;20617;49.476;10.986;2024-01-27T11:32:29;11.07;;;3.00;;
12878;SDS011;20617;49.476;10.986;2024-01-27T11:34:40;14.00;;;3.10;;
12878;SDS011;20617;49.476;10.986;2024-01-27T11:36:45;19.00;;;4.05;;
12878;SDS011;20617;49.476;10.986;2024-01-27T11:38:49;12.18;;;2.72;;
12878;SDS011;20617;49.476;10.986;2024-01-27T11:40:50;17.40;;;2.83;;
12878;SDS011;20617;49.476;10.986;2024-01-27T11:42:56;10.35;;;2.60;;
12878;SDS011;20617;49.476;10.986;2024-01-27T11:44:57;13.30;;;2.67;;
12878;SDS011;20617;49.476;10.986;2024-01-27T11:46:58;9.60;;;2.70;;
12878;SDS011;20617;49.476;10.986;2024-01-27T11:48:59;15.73;;;3.30;;
12878;SDS011;20617;49.476;10.986;2024-01-27T11:51:02;8.10;;;2.25;;
12878;SDS011;20617;49.476;10.986;2024-01-27T11:53:10;11.55;;;2.95;;
12878;SDS011;20617;49.476;10.986;2024-01-27T11:55:10;13.00;;;3.10;;
12878;SDS011;20617;49.476;10.986;2024-01-27T11:57:11;10.27;;;3.17;;
12878;SDS011;20617;49.476;10.986;2024-01-27T11:59:12;13.15;;;3.13;;